createdAt,value
2017-06-27T00:00:19.065Z,25.15
2017-06-27T00:00:59.522Z,25.18
2017-06-27T00:01:39.978Z,25.19
2017-06-27T00:02:20.436Z,25.16
2017-06-27T00:03:00.892Z,25.16
2017-06-27T00:03:41.345Z,25.14
2017-06-27T00:04:21.805Z,25.14
2017-06-27T00:05:02.270Z,25.18
2017-06-27T00:05:42.732Z,25.15
2017-06-27T00:06:23.200Z,25.21
2017-06-27T00:07:03.649Z,25.12
2017-06-27T00:07:44.107Z,25.19
2017-06-27T00:08:24.561Z,25.22
2017-06-27T00:09:05.016Z,25.18
2017-06-27T00:09:45.479Z,25.14
2017-06-27T00:10:25.938Z,25.18
2017-06-27T00:11:06.399Z,25.15
2017-06-27T00:11:46.858Z,25.12
2017-06-27T00:12:27.311Z,25.12
2017-06-27T00:13:07.775Z,25.15
2017-06-27T00:13:48.229Z,25.18
2017-06-27T00:14:28.686Z,25.09
2017-06-27T00:15:09.145Z,25.14
2017-06-27T00:15:49.606Z,25.14
2017-06-27T00:16:30.060Z,25.12
2017-06-27T00:17:10.519Z,25.14
2017-06-27T00:17:50.977Z,25.12
2017-06-27T00:18:31.438Z,25.12
2017-06-27T00:19:11.895Z,25.14
2017-06-27T00:19:52.355Z,25.11
2017-06-27T00:20:32.816Z,25.12
2017-06-27T00:21:13.270Z,25.14
2017-06-27T00:21:53.731Z,25.14
2017-06-27T00:22:34.188Z,25.11
2017-06-27T00:23:14.648Z,25.16
2017-06-27T00:23:55.106Z,25.16
2017-06-27T00:24:35.568Z,25.15
2017-06-27T00:25:16.016Z,25.15
2017-06-27T00:27:03.676Z,25.19
2017-06-27T00:27:44.126Z,25.15
2017-06-27T00:28:24.595Z,25.19
2017-06-27T00:29:05.043Z,25.22
2017-06-27T00:29:45.502Z,25.24
2017-06-27T00:30:25.953Z,25.16
2017-06-27T00:31:06.414Z,25.14
2017-06-27T00:31:46.871Z,25.14
2017-06-27T00:32:27.326Z,25.22
2017-06-27T00:33:07.787Z,25.22
2017-06-27T00:33:48.246Z,25.25
2017-06-27T00:34:28.702Z,25.19
2017-06-27T00:35:09.165Z,25.22
2017-06-27T00:35:49.622Z,25.29
2017-06-27T00:36:30.077Z,25.15
2017-06-27T00:37:10.534Z,25.19
2017-06-27T00:37:50.987Z,25.19
2017-06-27T00:38:31.441Z,25.24
2017-06-27T00:39:11.896Z,25.15
2017-06-27T00:39:52.361Z,25.19
2017-06-27T00:40:32.820Z,25.24
2017-06-27T00:41:13.272Z,25.19
2017-06-27T00:41:53.727Z,25.25
2017-06-27T00:42:34.184Z,25.18
2017-06-27T00:43:14.644Z,25.19
2017-06-27T00:43:55.102Z,25.21
2017-06-27T00:44:35.556Z,25.19
2017-06-27T00:45:16.016Z,25.19
2017-06-27T00:45:56.472Z,25.22
2017-06-27T00:46:36.905Z,25.16
2017-06-27T00:47:17.370Z,25.19
2017-06-27T00:47:57.822Z,25.15
2017-06-27T00:48:38.286Z,25.19
2017-06-27T00:49:18.749Z,25.22
2017-06-27T00:49:59.205Z,25.21
2017-06-27T00:50:39.673Z,25.18
2017-06-27T00:51:20.127Z,25.21
2017-06-27T00:52:00.576Z,25.16
2017-06-27T00:52:41.028Z,25.19
2017-06-27T00:53:21.480Z,25.22
2017-06-27T00:54:01.939Z,25.19
2017-06-27T00:54:42.396Z,25.21
2017-06-27T00:55:22.852Z,25.24
2017-06-27T00:56:03.315Z,25.21
2017-06-27T00:56:43.775Z,25.21
2017-06-27T00:57:24.227Z,25.21
2017-06-27T00:58:04.684Z,25.21
2017-06-27T00:58:45.143Z,25.16
2017-06-27T00:59:25.599Z,25.16
2017-06-27T01:00:06.051Z,25.15
2017-06-27T01:00:46.511Z,25.19
2017-06-27T01:01:26.972Z,25.18
2017-06-27T01:02:07.430Z,25.16
2017-06-27T01:02:47.908Z,25.29
2017-06-27T01:03:28.366Z,25.19
2017-06-27T01:04:08.825Z,25.18
2017-06-27T01:04:49.284Z,25.21
2017-06-27T01:05:29.733Z,25.29
2017-06-27T01:06:10.188Z,25.18
2017-06-27T01:06:50.640Z,25.15
2017-06-27T01:07:31.097Z,25.21
2017-06-27T01:08:11.552Z,25.3
2017-06-27T01:08:52.008Z,25.18
2017-06-27T01:09:32.468Z,25.24
2017-06-27T01:10:12.928Z,25.15
2017-06-27T01:10:53.383Z,25.24
2017-06-27T01:11:33.841Z,25.24
2017-06-27T01:12:14.305Z,25.19
2017-06-27T01:12:54.763Z,25.19
2017-06-27T01:13:35.214Z,25.21
2017-06-27T01:14:15.679Z,25.18
2017-06-27T01:14:56.130Z,25.19
2017-06-27T01:15:36.590Z,25.24
2017-06-27T01:16:17.090Z,25.21
2017-06-27T01:16:57.523Z,25.22
2017-06-27T01:17:37.985Z,25.21
2017-06-27T01:18:18.437Z,25.22
2017-06-27T01:18:58.890Z,25.19
2017-06-27T01:19:39.350Z,25.18
2017-06-27T01:20:19.794Z,25.19
2017-06-27T01:21:00.255Z,25.21
2017-06-27T01:21:40.709Z,25.24
2017-06-27T01:22:21.156Z,25.12
2017-06-27T01:23:01.612Z,25.15
2017-06-27T01:23:42.069Z,25.09
2017-06-27T01:24:22.531Z,25.01
2017-06-27T01:25:02.990Z,25.04
2017-06-27T01:25:43.448Z,25.04
2017-06-27T01:26:23.910Z,25.04
2017-06-27T01:27:04.369Z,25.09
2017-06-27T01:27:44.829Z,24.97
2017-06-27T01:28:25.284Z,25
2017-06-27T01:29:05.742Z,24.97
2017-06-27T01:29:46.199Z,25.04
2017-06-27T01:30:26.653Z,25.09
2017-06-27T01:31:07.117Z,25.03
2017-06-27T01:31:47.576Z,24.97
2017-06-27T01:32:28.024Z,25.01
2017-06-27T01:33:08.476Z,25.15
2017-06-27T01:33:48.937Z,25.12
2017-06-27T01:34:29.393Z,24.99
2017-06-27T01:35:09.849Z,24.99
2017-06-27T01:35:50.312Z,24.96
2017-06-27T01:36:30.769Z,25.01
2017-06-27T01:37:11.228Z,25
2017-06-27T01:37:51.685Z,25.07
2017-06-27T01:38:32.144Z,25
2017-06-27T01:39:12.606Z,25.09
2017-06-27T01:39:53.061Z,24.97
2017-06-27T01:40:33.520Z,25
2017-06-27T01:41:13.984Z,25.07
2017-06-27T01:41:54.442Z,25
2017-06-27T01:42:34.899Z,25.07
2017-06-27T01:43:15.367Z,25.06
2017-06-27T01:43:55.824Z,25.12
2017-06-27T01:44:36.284Z,25.09
2017-06-27T01:45:16.743Z,25.01
2017-06-27T01:45:57.201Z,24.94
2017-06-27T01:46:37.646Z,25.01
2017-06-27T01:47:18.105Z,25.06
2017-06-27T01:47:58.558Z,25.01
2017-06-27T01:48:39.017Z,25.03
2017-06-27T01:49:19.472Z,25.15
2017-06-27T01:49:59.929Z,25.11
2017-06-27T01:50:40.385Z,25.15
2017-06-27T01:51:20.852Z,25.15
2017-06-27T01:52:01.313Z,25.16
2017-06-27T01:52:41.767Z,25.21
2017-06-27T01:53:22.221Z,25.19
2017-06-27T01:54:02.681Z,25.26
2017-06-27T01:54:43.139Z,25.18
2017-06-27T01:55:23.592Z,25.22
2017-06-27T01:56:04.040Z,25.21
2017-06-27T01:56:44.504Z,25.24
2017-06-27T01:57:24.976Z,25.22
2017-06-27T01:58:05.406Z,25.24
2017-06-27T01:58:45.852Z,25.24
2017-06-27T01:59:26.314Z,25.24
2017-06-27T02:00:06.758Z,25.26
2017-06-27T02:00:47.221Z,25.33
2017-06-27T02:01:27.679Z,25.37
2017-06-27T02:02:08.138Z,25.31
2017-06-27T02:02:48.595Z,25.39
2017-06-27T02:03:29.056Z,25.33
2017-06-27T02:04:09.511Z,25.37
2017-06-27T02:04:49.968Z,25.36
2017-06-27T02:05:30.423Z,25.36
2017-06-27T02:06:10.881Z,25.37
2017-06-27T02:06:51.339Z,25.37
2017-06-27T02:07:31.795Z,25.37
2017-06-27T02:08:12.254Z,25.34
2017-06-27T02:08:52.671Z,25.39
2017-06-27T02:09:33.119Z,25.39
2017-06-27T02:10:13.569Z,25.46
2017-06-27T02:10:54.019Z,25.34
2017-06-27T02:11:34.477Z,25.39
2017-06-27T02:12:14.913Z,25.36
2017-06-27T02:12:55.362Z,25.34
2017-06-27T02:13:35.801Z,25.31
2017-06-27T02:14:16.288Z,25.43
2017-06-27T02:14:56.716Z,25.34
2017-06-27T02:15:37.135Z,25.39
2017-06-27T02:16:17.556Z,25.33
2017-06-27T02:16:57.999Z,25.4
2017-06-27T02:17:38.431Z,25.36
2017-06-27T02:18:18.867Z,25.4
2017-06-27T02:18:59.294Z,25.36
2017-06-27T02:19:39.742Z,25.33
2017-06-27T02:20:20.161Z,25.36
2017-06-27T02:21:00.612Z,25.39
2017-06-27T02:21:41.054Z,25.36
2017-06-27T02:22:21.510Z,25.43
2017-06-27T02:23:01.963Z,25.37
2017-06-27T02:23:42.415Z,25.39
2017-06-27T02:24:22.869Z,25.36
2017-06-27T02:25:03.322Z,25.37
2017-06-27T02:25:43.778Z,25.43
2017-06-27T02:26:24.239Z,25.36
2017-06-27T02:27:04.699Z,25.37
2017-06-27T02:27:45.154Z,25.36
2017-06-27T02:28:25.603Z,25.4
2017-06-27T02:29:06.091Z,25.4
2017-06-27T02:29:46.549Z,25.41
2017-06-27T02:30:27.009Z,25.41
2017-06-27T02:31:07.474Z,25.49
2017-06-27T02:31:47.928Z,25.44
2017-06-27T02:32:28.386Z,25.54
2017-06-27T02:33:08.838Z,25.41
2017-06-27T02:33:49.300Z,25.48
2017-06-27T02:34:29.756Z,25.55
2017-06-27T02:35:10.214Z,25.51
2017-06-27T02:35:50.667Z,25.51
2017-06-27T02:36:31.110Z,25.52
2017-06-27T02:37:11.565Z,25.51
2017-06-27T02:37:52.020Z,25.52
2017-06-27T02:38:32.467Z,25.48
2017-06-27T02:39:12.915Z,25.58
2017-06-27T02:39:53.374Z,25.51
2017-06-27T02:40:33.841Z,25.49
2017-06-27T02:41:15.036Z,25.46
2017-06-27T02:41:55.493Z,25.49
2017-06-27T02:42:35.951Z,25.49
2017-06-27T02:43:16.418Z,25.44
2017-06-27T02:43:56.872Z,25.52
2017-06-27T02:44:37.329Z,25.52
2017-06-27T02:45:17.789Z,25.52
2017-06-27T02:45:58.242Z,25.51
2017-06-27T02:46:38.699Z,25.43
2017-06-27T02:47:19.151Z,25.55
2017-06-27T02:47:59.605Z,25.37
2017-06-27T02:48:40.059Z,25.4
2017-06-27T02:49:20.517Z,25.39
2017-06-27T02:50:00.977Z,25.36
2017-06-27T02:50:41.432Z,25.36
2017-06-27T02:51:21.884Z,25.37
2017-06-27T02:52:02.359Z,25.36
2017-06-27T02:52:42.819Z,25.33
2017-06-27T02:53:23.275Z,25.33
2017-06-27T02:54:03.736Z,25.33
2017-06-27T02:54:44.191Z,25.21
2017-06-27T02:55:24.650Z,25.25
2017-06-27T02:56:05.115Z,25.3
2017-06-27T02:56:45.567Z,25.25
2017-06-27T02:57:26.027Z,25.43
2017-06-27T02:58:06.493Z,25.33
2017-06-27T02:58:46.951Z,25.34
2017-06-27T02:59:27.402Z,25.36
2017-06-27T03:00:07.862Z,25.33
2017-06-27T03:00:48.318Z,25.3
2017-06-27T03:01:28.777Z,25.33
2017-06-27T03:02:09.225Z,25.25
2017-06-27T03:02:49.677Z,25.33
2017-06-27T03:03:30.116Z,25.24
2017-06-27T03:04:10.567Z,25.34
2017-06-27T03:04:51.028Z,25.37
2017-06-27T03:05:31.474Z,25.37
2017-06-27T03:06:11.932Z,25.37
2017-06-27T03:06:52.385Z,25.39
2017-06-27T03:07:32.841Z,25.37
2017-06-27T03:08:13.298Z,25.41
2017-06-27T03:08:53.766Z,25.33
2017-06-27T03:09:34.213Z,25.37
2017-06-27T03:10:14.671Z,25.37
2017-06-27T03:10:55.121Z,25.37
2017-06-27T03:11:35.575Z,25.34
2017-06-27T03:12:16.026Z,25.36
2017-06-27T03:12:56.478Z,25.31
2017-06-27T03:13:36.957Z,25.25
2017-06-27T03:14:17.444Z,25.24
2017-06-27T03:14:57.902Z,25.34
2017-06-27T03:15:38.361Z,25.3
2017-06-27T03:16:18.810Z,25.26
2017-06-27T03:16:59.278Z,25.3
2017-06-27T03:17:39.736Z,25.24
2017-06-27T03:18:20.188Z,25.25
2017-06-27T03:19:00.618Z,25.25
2017-06-27T03:19:41.074Z,25.29
2017-06-27T03:20:21.532Z,25.22
2017-06-27T03:21:01.986Z,25.24
2017-06-27T03:21:42.446Z,25.15
2017-06-27T03:22:22.908Z,25.15
2017-06-27T03:23:03.365Z,25.15
2017-06-27T03:23:43.824Z,25.25
2017-06-27T03:24:24.283Z,25.26
2017-06-27T03:25:04.739Z,25.22
2017-06-27T03:25:45.194Z,25.18
2017-06-27T03:26:25.652Z,25.24
2017-06-27T03:27:06.101Z,25.21
2017-06-27T03:27:46.555Z,25.18
2017-06-27T03:28:27.009Z,25.24
2017-06-27T03:29:07.465Z,25.21
2017-06-27T03:29:47.932Z,25.19
2017-06-27T03:30:28.371Z,25.16
2017-06-27T03:31:08.838Z,25.25
2017-06-27T03:31:49.289Z,25.15
2017-06-27T03:32:29.749Z,25.25
2017-06-27T03:33:10.206Z,25.24
2017-06-27T03:33:50.668Z,25.19
2017-06-27T03:34:31.115Z,25.24
2017-06-27T03:35:11.569Z,25.18
2017-06-27T03:35:52.020Z,25.18
2017-06-27T03:36:32.499Z,25.24
2017-06-27T03:37:12.931Z,25.25
2017-06-27T03:37:53.390Z,25.15
2017-06-27T03:38:33.851Z,25.26
2017-06-27T03:39:14.307Z,25.25
2017-06-27T03:39:54.770Z,25.15
2017-06-27T03:40:35.229Z,25.24
2017-06-27T03:41:15.686Z,25.19
2017-06-27T03:41:56.148Z,25.18
2017-06-27T03:42:36.600Z,25.18
2017-06-27T03:43:17.059Z,25.18
2017-06-27T03:43:57.536Z,25.19
2017-06-27T03:44:37.993Z,25.19
2017-06-27T03:45:18.451Z,25.21
2017-06-27T03:45:58.904Z,25.21
2017-06-27T03:46:39.390Z,25.19
2017-06-27T03:47:19.842Z,25.16
2017-06-27T03:48:00.297Z,25.15
2017-06-27T03:48:40.758Z,25.21
2017-06-27T03:49:21.230Z,25.18
2017-06-27T03:50:01.690Z,25.18
2017-06-27T03:50:42.152Z,25.24
2017-06-27T03:51:22.612Z,25.18
2017-06-27T03:52:03.072Z,25.22
2017-06-27T03:52:43.531Z,25.26
2017-06-27T03:53:23.989Z,25.31
2017-06-27T03:54:04.445Z,25.29
2017-06-27T03:54:44.902Z,25.33
2017-06-27T03:55:25.419Z,25.22
2017-06-27T03:56:05.870Z,25.26
2017-06-27T03:56:46.329Z,25.31
2017-06-27T03:57:26.788Z,25.37
2017-06-27T03:58:07.246Z,25.37
2017-06-27T03:58:47.708Z,25.43
2017-06-27T03:59:28.167Z,25.43
2017-06-27T04:00:08.626Z,25.37
2017-06-27T04:00:49.085Z,25.4
2017-06-27T04:01:29.543Z,25.51
2017-06-27T04:02:10.001Z,25.36
2017-06-27T04:02:50.462Z,25.51
2017-06-27T04:03:30.927Z,25.49
2017-06-27T04:04:11.392Z,25.54
2017-06-27T04:04:51.839Z,25.46
2017-06-27T04:05:32.303Z,25.51
2017-06-27T04:06:12.763Z,25.55
2017-06-27T04:06:53.220Z,25.52
2017-06-27T04:07:33.681Z,25.58
2017-06-27T04:08:14.141Z,25.58
2017-06-27T04:08:54.605Z,25.61
2017-06-27T04:09:35.061Z,25.61
2017-06-27T04:10:15.525Z,25.59
2017-06-27T04:10:55.984Z,25.58
2017-06-27T04:11:36.445Z,25.62
2017-06-27T04:12:16.906Z,25.62
2017-06-27T04:12:57.365Z,25.58
2017-06-27T04:13:37.858Z,25.62
2017-06-27T04:14:18.319Z,25.62
2017-06-27T04:14:58.776Z,25.66
2017-06-27T04:15:39.235Z,25.7
2017-06-27T04:16:19.693Z,25.62
2017-06-27T04:17:00.155Z,25.68
2017-06-27T04:17:40.614Z,25.73
2017-06-27T04:18:21.076Z,25.7
2017-06-27T04:19:01.533Z,25.67
2017-06-27T04:19:41.992Z,25.74
2017-06-27T04:20:22.451Z,25.73
2017-06-27T04:21:02.907Z,25.74
2017-06-27T04:21:43.366Z,25.74
2017-06-27T04:22:23.825Z,25.76
2017-06-27T04:23:04.281Z,25.8
2017-06-27T04:23:44.742Z,25.76
2017-06-27T04:24:25.198Z,25.77
2017-06-27T04:25:05.660Z,25.78
2017-06-27T04:25:46.094Z,25.73
2017-06-27T04:26:26.557Z,25.85
2017-06-27T04:27:07.050Z,25.8
2017-06-27T04:27:47.532Z,25.83
2017-06-27T04:28:27.972Z,25.8
2017-06-27T04:29:08.425Z,25.83
2017-06-27T04:29:48.882Z,25.85
2017-06-27T04:30:29.339Z,25.77
2017-06-27T04:31:09.828Z,25.8
2017-06-27T04:31:50.258Z,25.93
2017-06-27T04:32:30.707Z,25.86
2017-06-27T04:33:11.169Z,25.89
2017-06-27T04:33:51.623Z,25.78
2017-06-27T04:34:32.083Z,25.81
2017-06-27T04:35:12.539Z,25.93
2017-06-27T04:35:53.000Z,25.89
2017-06-27T04:36:33.460Z,25.89
2017-06-27T04:37:13.936Z,25.85
2017-06-27T04:37:54.395Z,25.85
2017-06-27T04:38:34.855Z,25.92
2017-06-27T04:39:15.314Z,25.95
2017-06-27T04:39:55.771Z,25.86
2017-06-27T04:40:36.229Z,25.92
2017-06-27T04:41:16.696Z,25.83
2017-06-27T04:41:57.151Z,25.93
2017-06-27T04:42:37.611Z,25.88
2017-06-27T04:43:18.072Z,25.88
2017-06-27T04:43:58.529Z,25.85
2017-06-27T04:44:38.988Z,25.91
2017-06-27T04:45:19.444Z,25.96
2017-06-27T04:45:59.901Z,25.95
2017-06-27T04:46:40.356Z,25.96
2017-06-27T04:47:20.816Z,25.92
2017-06-27T04:48:01.274Z,25.95
2017-06-27T04:48:41.730Z,25.88
2017-06-27T04:49:22.182Z,25.92
2017-06-27T04:50:02.651Z,25.92
2017-06-27T04:50:43.107Z,25.8
2017-06-27T04:51:23.565Z,25.92
2017-06-27T04:52:04.026Z,25.92
2017-06-27T04:52:44.489Z,25.93
2017-06-27T04:53:24.934Z,25.98
2017-06-27T04:54:05.395Z,26.01
2017-06-27T04:54:45.853Z,25.93
2017-06-27T04:55:26.313Z,25.89
2017-06-27T04:56:06.768Z,25.93
2017-06-27T04:56:47.232Z,25.88
2017-06-27T04:57:27.683Z,25.99
2017-06-27T04:58:08.133Z,25.98
2017-06-27T04:58:48.593Z,25.91
2017-06-27T04:59:29.051Z,25.99
2017-06-27T05:00:09.507Z,25.92
2017-06-27T05:00:49.967Z,25.98
2017-06-27T05:01:30.429Z,25.96
2017-06-27T05:02:10.887Z,25.93
2017-06-27T05:02:51.342Z,25.95
2017-06-27T05:03:31.797Z,26.01
2017-06-27T05:04:12.258Z,26.01
2017-06-27T05:04:52.714Z,25.96
2017-06-27T05:05:33.176Z,25.99
2017-06-27T05:06:13.641Z,25.98
2017-06-27T05:06:54.099Z,25.99
2017-06-27T05:07:34.549Z,26.01
2017-06-27T05:08:15.009Z,26.01
2017-06-27T05:08:55.471Z,25.98
2017-06-27T05:09:35.928Z,26.01
2017-06-27T05:10:16.386Z,25.96
2017-06-27T05:10:56.858Z,25.99
2017-06-27T05:11:37.317Z,25.88
2017-06-27T05:12:17.793Z,25.99
2017-06-27T05:12:58.286Z,25.95
2017-06-27T05:13:38.715Z,25.95
2017-06-27T05:14:19.183Z,25.96
2017-06-27T05:14:59.632Z,25.96
2017-06-27T05:15:40.133Z,25.93
2017-06-27T05:16:20.713Z,25.95
2017-06-27T05:17:01.159Z,25.91
2017-06-27T05:17:41.616Z,25.95
2017-06-27T05:18:22.184Z,25.98
2017-06-27T05:19:02.648Z,26.01
2017-06-27T05:19:43.094Z,25.98
2017-06-27T05:20:23.518Z,25.95
2017-06-27T05:21:03.965Z,25.92
2017-06-27T05:21:44.425Z,25.96
2017-06-27T05:22:24.875Z,25.92
2017-06-27T05:23:05.755Z,25.96
2017-06-27T05:23:46.204Z,25.93
2017-06-27T05:24:26.681Z,25.91
2017-06-27T05:25:07.127Z,25.93
2017-06-27T05:25:47.590Z,25.89
2017-06-27T05:26:30.970Z,25.86
2017-06-27T05:27:11.422Z,25.95
2017-06-27T05:27:51.923Z,25.86
2017-06-27T05:28:32.378Z,25.99
2017-06-27T05:29:12.835Z,25.85
2017-06-27T05:29:53.299Z,25.92
2017-06-27T05:30:33.775Z,25.98
2017-06-27T05:31:14.234Z,25.95
2017-06-27T05:31:54.712Z,25.93
2017-06-27T05:32:35.171Z,25.93
2017-06-27T05:33:15.630Z,25.91
2017-06-27T05:33:56.091Z,25.98
2017-06-27T05:34:36.597Z,25.92
2017-06-27T05:35:17.056Z,25.92
2017-06-27T05:35:57.548Z,25.96
2017-06-27T05:36:38.042Z,25.92
2017-06-27T05:37:18.471Z,25.99
2017-06-27T05:37:58.926Z,25.89
2017-06-27T05:38:39.385Z,25.91
2017-06-27T05:39:19.843Z,25.99
2017-06-27T05:40:00.304Z,25.93
2017-06-27T05:40:40.764Z,25.92
2017-06-27T05:41:21.228Z,25.96
2017-06-27T05:42:01.686Z,25.96
2017-06-27T05:42:42.151Z,25.96
2017-06-27T05:43:22.613Z,25.95
2017-06-27T05:44:03.077Z,25.93
2017-06-27T05:44:43.530Z,25.93
2017-06-27T05:45:24.024Z,25.98
2017-06-27T05:46:04.462Z,25.86
2017-06-27T05:46:44.924Z,25.93
2017-06-27T05:47:25.384Z,25.95
2017-06-27T05:48:05.845Z,25.98
2017-06-27T05:48:46.300Z,25.91
2017-06-27T05:49:26.764Z,25.95
2017-06-27T05:50:07.210Z,26.01
2017-06-27T05:50:47.671Z,25.91
2017-06-27T05:51:28.127Z,25.99
2017-06-27T05:52:08.593Z,25.93
2017-06-27T05:52:49.053Z,25.95
2017-06-27T05:53:29.513Z,25.96
2017-06-27T05:54:09.972Z,25.95
2017-06-27T05:54:50.432Z,25.99
2017-06-27T05:55:30.891Z,25.98
2017-06-27T05:56:11.352Z,25.99
2017-06-27T05:56:51.804Z,25.96
2017-06-27T05:57:32.258Z,26.03
2017-06-27T05:58:12.717Z,25.93
2017-06-27T05:58:53.172Z,25.98
2017-06-27T05:59:33.628Z,26.01
2017-06-27T06:00:14.085Z,25.93
2017-06-27T06:00:54.547Z,25.95
2017-06-27T06:01:35.041Z,25.95
2017-06-27T06:02:15.464Z,25.99
2017-06-27T06:02:55.921Z,25.99
2017-06-27T06:03:36.395Z,25.98
2017-06-27T06:04:16.828Z,25.98
2017-06-27T06:04:57.275Z,25.99
2017-06-27T06:05:37.738Z,26.01
2017-06-27T06:06:18.198Z,25.98
2017-06-27T06:06:58.654Z,26.04
2017-06-27T06:07:39.117Z,26.01
2017-06-27T06:08:19.575Z,25.96
2017-06-27T06:09:00.042Z,25.98
2017-06-27T06:09:40.498Z,25.96
2017-06-27T06:10:20.970Z,26.06
2017-06-27T06:11:01.433Z,26.04
2017-06-27T06:11:41.889Z,25.99
2017-06-27T06:12:22.347Z,26.07
2017-06-27T06:13:02.815Z,26.08
2017-06-27T06:13:43.274Z,25.96
2017-06-27T06:14:23.754Z,26.08
2017-06-27T06:15:04.295Z,26.11
2017-06-27T06:15:44.743Z,25.95
2017-06-27T06:16:25.192Z,26.01
2017-06-27T06:17:05.650Z,26.04
2017-06-27T06:17:46.111Z,26.1
2017-06-27T06:18:26.553Z,25.96
2017-06-27T06:19:07.005Z,26.08
2017-06-27T06:19:47.478Z,26.08
2017-06-27T06:20:27.925Z,25.96
2017-06-27T06:21:08.388Z,26.06
2017-06-27T06:21:48.852Z,26.06
2017-06-27T06:22:29.309Z,26.07
2017-06-27T06:23:09.769Z,26.1
2017-06-27T06:23:50.233Z,26.07
2017-06-27T06:24:30.688Z,26.1
2017-06-27T06:25:11.149Z,25.96
2017-06-27T06:25:51.605Z,26.08
2017-06-27T06:26:32.069Z,26.04
2017-06-27T06:27:12.533Z,26.03
2017-06-27T06:27:52.991Z,26.13
2017-06-27T06:28:33.442Z,26.1
2017-06-27T06:29:13.950Z,26.13
2017-06-27T06:29:54.351Z,26.13
2017-06-27T06:30:34.808Z,26.01
2017-06-27T06:31:15.265Z,25.98
2017-06-27T06:31:55.722Z,26.06
2017-06-27T06:32:36.171Z,26.01
2017-06-27T06:33:16.626Z,26.01
2017-06-27T06:33:57.093Z,26.04
2017-06-27T06:34:37.533Z,26.1
2017-06-27T06:35:17.984Z,26.06
2017-06-27T06:35:58.437Z,26.1
2017-06-27T06:36:38.890Z,26.1
2017-06-27T06:37:19.349Z,26.18
2017-06-27T06:37:59.816Z,26.13
2017-06-27T06:38:40.277Z,26.19
2017-06-27T06:39:20.733Z,26.11
2017-06-27T06:40:01.184Z,26.18
2017-06-27T06:40:41.640Z,26.11
2017-06-27T06:41:22.088Z,26.13
2017-06-27T06:42:02.572Z,26.11
2017-06-27T06:42:43.026Z,26.22
2017-06-27T06:43:23.484Z,26.13
2017-06-27T06:44:03.945Z,26.1
2017-06-27T06:44:44.404Z,26.16
2017-06-27T06:45:24.858Z,26.18
2017-06-27T06:46:05.317Z,26.26
2017-06-27T06:46:45.778Z,26.16
2017-06-27T06:47:26.231Z,26.26
2017-06-27T06:48:06.669Z,26.26
2017-06-27T06:48:47.127Z,26.27
2017-06-27T06:49:27.586Z,26.27
2017-06-27T06:50:08.045Z,26.29
2017-06-27T06:50:48.509Z,26.31
2017-06-27T06:51:28.971Z,26.29
2017-06-27T06:52:09.429Z,26.22
2017-06-27T06:52:49.887Z,26.3
2017-06-27T06:53:30.353Z,26.23
2017-06-27T06:54:10.814Z,26.23
2017-06-27T06:54:51.277Z,26.26
2017-06-27T06:55:31.736Z,26.34
2017-06-27T06:56:12.189Z,26.27
2017-06-27T06:56:52.645Z,26.34
2017-06-27T06:57:33.106Z,26.29
2017-06-27T06:58:13.608Z,26.3
2017-06-27T06:58:54.071Z,26.33
2017-06-27T06:59:34.531Z,26.34
2017-06-27T07:00:14.992Z,26.31
2017-06-27T07:00:55.453Z,26.36
2017-06-27T07:01:35.914Z,26.29
2017-06-27T07:02:16.381Z,26.36
2017-06-27T07:02:56.837Z,26.34
2017-06-27T07:03:37.297Z,26.37
2017-06-27T07:04:17.753Z,26.37
2017-06-27T07:04:58.213Z,26.33
2017-06-27T07:05:38.670Z,26.41
2017-06-27T07:06:19.127Z,26.36
2017-06-27T07:06:59.579Z,26.44
2017-06-27T07:07:40.041Z,26.42
2017-06-27T07:08:20.501Z,26.49
2017-06-27T07:09:00.960Z,26.45
2017-06-27T07:09:41.415Z,26.48
2017-06-27T07:10:21.871Z,26.52
2017-06-27T07:11:02.333Z,26.49
2017-06-27T07:11:42.789Z,26.49
2017-06-27T07:12:23.244Z,26.48
2017-06-27T07:13:03.696Z,26.48
2017-06-27T07:13:44.171Z,26.52
2017-06-27T07:14:24.619Z,26.56
2017-06-27T07:15:05.072Z,26.51
2017-06-27T07:15:45.534Z,26.49
2017-06-27T07:16:25.993Z,26.53
2017-06-27T07:17:06.446Z,26.48
2017-06-27T07:17:46.911Z,26.53
2017-06-27T07:18:27.358Z,26.55
2017-06-27T07:19:07.819Z,26.55
2017-06-27T07:19:48.272Z,26.53
2017-06-27T07:20:28.732Z,26.48
2017-06-27T07:21:09.194Z,26.49
2017-06-27T07:21:49.651Z,26.49
2017-06-27T07:22:30.109Z,26.59
2017-06-27T07:23:10.569Z,26.53
2017-06-27T07:23:51.031Z,26.55
2017-06-27T07:24:31.479Z,26.56
2017-06-27T07:25:11.942Z,26.56
2017-06-27T07:25:52.405Z,26.52
2017-06-27T07:26:32.865Z,26.53
2017-06-27T07:27:13.327Z,26.52
2017-06-27T07:27:53.785Z,26.61
2017-06-27T07:28:34.250Z,26.59
2017-06-27T07:29:14.716Z,26.52
2017-06-27T07:29:55.169Z,26.6
2017-06-27T07:30:35.621Z,26.66
2017-06-27T07:31:16.079Z,26.59
2017-06-27T07:31:56.540Z,26.66
2017-06-27T07:32:36.998Z,26.6
2017-06-27T07:33:17.464Z,26.61
2017-06-27T07:33:57.915Z,26.61
2017-06-27T07:34:38.378Z,26.66
2017-06-27T07:35:18.838Z,26.67
2017-06-27T07:35:59.299Z,26.63
2017-06-27T07:36:39.759Z,26.71
2017-06-27T07:37:20.213Z,26.78
2017-06-27T07:38:01.190Z,26.78
2017-06-27T07:38:41.654Z,26.79
2017-06-27T07:39:22.114Z,26.76
2017-06-27T07:40:02.597Z,26.79
2017-06-27T07:40:43.034Z,26.73
2017-06-27T07:41:23.501Z,26.83
2017-06-27T07:42:03.961Z,26.76
2017-06-27T07:42:44.417Z,26.83
2017-06-27T07:43:24.866Z,26.82
2017-06-27T07:44:05.329Z,26.81
2017-06-27T07:44:45.775Z,26.83
2017-06-27T07:45:26.230Z,26.86
2017-06-27T07:46:06.686Z,26.83
2017-06-27T07:46:47.151Z,26.83
2017-06-27T07:47:27.605Z,26.83
2017-06-27T07:48:08.062Z,26.79
2017-06-27T07:48:48.519Z,26.79
2017-06-27T07:49:28.977Z,26.86
2017-06-27T07:50:09.438Z,26.78
2017-06-27T07:50:49.892Z,26.86
2017-06-27T07:51:30.352Z,26.81
2017-06-27T07:52:10.813Z,26.78
2017-06-27T07:52:51.270Z,26.89
2017-06-27T07:53:31.725Z,26.88
2017-06-27T07:54:12.191Z,26.86
2017-06-27T07:54:52.666Z,26.83
2017-06-27T07:55:33.116Z,26.89
2017-06-27T07:56:13.572Z,26.91
2017-06-27T07:56:54.035Z,26.85
2017-06-27T07:57:34.493Z,26.86
2017-06-27T07:58:14.952Z,26.89
2017-06-27T07:58:55.405Z,26.93
2017-06-27T07:59:35.876Z,26.92
2017-06-27T08:00:16.332Z,26.88
2017-06-27T08:00:56.792Z,26.88
2017-06-27T08:01:37.252Z,26.91
2017-06-27T08:02:17.705Z,26.88
2017-06-27T08:02:58.159Z,26.88
2017-06-27T08:03:38.615Z,26.82
2017-06-27T08:04:19.077Z,26.88
2017-06-27T08:04:59.526Z,26.89
2017-06-27T08:05:39.984Z,26.91
2017-06-27T08:06:20.446Z,26.96
2017-06-27T08:07:00.903Z,26.92
2017-06-27T08:07:41.355Z,26.88
2017-06-27T08:08:21.812Z,26.91
2017-06-27T08:09:02.271Z,27.04
2017-06-27T08:09:42.730Z,26.96
2017-06-27T08:10:23.189Z,26.96
2017-06-27T08:11:03.642Z,26.92
2017-06-27T08:11:44.103Z,26.93
2017-06-27T08:12:24.561Z,26.92
2017-06-27T08:13:05.047Z,27.03
2017-06-27T08:13:45.508Z,26.96
2017-06-27T08:14:25.974Z,26.97
2017-06-27T08:15:06.423Z,27.01
2017-06-27T08:15:46.886Z,27.01
2017-06-27T08:16:27.342Z,27.11
2017-06-27T08:17:07.813Z,27.04
2017-06-27T08:17:48.281Z,27.03
2017-06-27T08:18:28.739Z,27
2017-06-27T08:19:09.204Z,27.01
2017-06-27T08:19:49.658Z,27.08
2017-06-27T08:20:30.120Z,27.04
2017-06-27T08:21:10.577Z,27.11
2017-06-27T08:21:51.036Z,27.01
2017-06-27T08:22:31.496Z,27
2017-06-27T08:23:11.957Z,27.07
2017-06-27T08:23:52.417Z,27.03
2017-06-27T08:24:32.874Z,27
2017-06-27T08:25:13.342Z,27.05
2017-06-27T08:25:53.799Z,27.07
2017-06-27T08:26:34.256Z,27
2017-06-27T08:27:14.707Z,27.07
2017-06-27T08:27:55.163Z,27.03
2017-06-27T08:28:35.618Z,27.1
2017-06-27T08:29:16.076Z,27.07
2017-06-27T08:29:56.558Z,26.97
2017-06-27T08:30:37.018Z,27.07
2017-06-27T08:31:17.480Z,27.07
2017-06-27T08:31:57.928Z,27.11
2017-06-27T08:32:38.385Z,27.1
2017-06-27T08:33:18.836Z,27.07
2017-06-27T08:33:59.303Z,27.11
2017-06-27T08:34:41.169Z,27.16
2017-06-27T08:35:21.626Z,27.05
2017-06-27T08:36:02.082Z,27.11
2017-06-27T08:36:42.541Z,27.08
2017-06-27T08:37:23.000Z,27.11
2017-06-27T08:38:03.462Z,27.11
2017-06-27T08:38:43.923Z,27.19
2017-06-27T08:39:24.378Z,27.07
2017-06-27T08:40:04.837Z,27.2
2017-06-27T08:40:45.286Z,27.15
2017-06-27T08:41:25.745Z,27.15
2017-06-27T08:42:06.205Z,27.2
2017-06-27T08:42:46.656Z,27.15
2017-06-27T08:43:27.113Z,27.13